メインページ
METAR-TAF:

METAR-TAF

空港 :

バーレーン国際空港

バーレーン, バーレーン

緯度: 26-16N, 経度: 050-39E, 海抜: 2m

現時点の気象観測

当レポートは24分前の03:30(UTC)に作成
北/北西の風 21kt
気温 21°C
湿度 73%
気圧 1015 hPa
視程10km以上
高度2000ftの雲はほとんどない
高度4000ftの雲は散在している, 積乱雲.
弱いにわか雨

METAR: OBBI 130330Z 33021KT 9999 -SHRA FEW020 SCT040CB 21/16 Q1015 TEMPO 34020G35KT 5000 TSRA

時間: 06:54 (03:54 UTC)

予報

当レポートは4時間54分前の23:00(UTC)に作成
予報は13日の 03時(UTC)から 14日の 05時(UTC)まで有効
南/南東の風 10kt
視程10km以上
1,500メートル以下は雲なし、積乱雲なし
13日の 03時(UTC)から 13日の 12時(UTC)まで一時的に
北/北西の風 20kt、最大35ktの突風を伴う
視程: 4000m
高度4000ftの雲は散在している, 積乱雲.
高度8000ftの千切れ雲あり
激しい雷雨, 雨

TAF: OBBI 122300Z 1303/1405 16010KT CAVOK TEMPO 1303/1312 33020G35KT 4000 TSRA SCT040CB BKN080

4,000以上の空港の気象観測と天気予報(METAR報とTAF報)

利用可能な観測所は地図上に黄色い丸と赤い丸で示す。

丸の上にカーソルを重ねると観測所名を参照できる。

次にクリックすると気象観測と天気予報を参照できる。

マップの切り替え:黒色「×」印の緑ボタンをクリックして拡大、「-」印の緑ボタンをクリックして縮小、緑色の三角印をクリックして隣りの地図に切り替え


METAR-TAF: